Time;durP1;ratioP1;P1;durP2;ratioP2;P2;SDS_P1;SDS_P2;PMS_P1;PMS_P2;Temp;Humidity;BMP_temperature;BMP_pressure;BME280_temperature;BME280_humidity;BME280_pressure;Samples;Min_cycle;Max_cycle;Signal;HPM_P1;HPM_P2
2022/06/22 00:00:20;;;;;;;3.15;1.80;;;;;;;;;;4277367;33;20440;-63
2022/06/22 00:02:50;;;;;;;3.20;2.40;;;;;;;;;;4290854;33;20107;-63
2022/06/22 00:35:35;;;;;;;5.60;2.33;;;;;;;;;;4258731;33;20431;-62
2022/06/22 00:38:01;;;;;;;3.37;2.42;;;;;;;;;;4261328;33;20116;-61
2022/06/22 00:40:27;;;;;;;7.72;1.92;;;;;;;;;;4270689;33;20116;-61
2022/06/22 00:42:53;;;;;;;3.83;2.30;;;;;;;;;;4264560;33;20135;-61
2022/06/22 00:45:26;;;;;;;5.78;2.12;;;;;;;;;;4258514;33;20206;-61
2022/06/22 00:47:58;;;;;;;8.85;2.30;;;;;;;;;;4268459;33;20140;-70
2022/06/22 00:50:28;;;;;;;5.53;2.33;;;;;;;;;;4247265;33;20108;-70
2022/06/22 00:53:01;;;;;;;6.55;2.30;;;;;;;;;;4260579;33;20207;-71
2022/06/22 00:55:50;;;;;;;3.10;2.30;;;;;;;;;;4274575;33;20138;-71
2022/06/22 00:58:59;;;;;;;5.60;2.22;;;;;;;;;;4247404;33;20445;-70
2022/06/22 01:01:34;;;;;;;6.82;2.30;;;;;;;;;;4258769;33;20148;-70
2022/06/22 01:04:02;;;;;;;13.77;2.00;;;;;;;;;;4261448;33;20107;-61
2022/06/22 01:06:31;;;;;;;8.20;2.35;;;;;;;;;;4263099;33;20135;-61
2022/06/22 01:09:21;;;;;;;7.87;2.53;;;;;;;;;;4275686;33;20536;-61
2022/06/22 01:12:22;;;;;;;6.12;2.37;;;;;;;;;;4265631;33;20211;-61
2022/06/22 01:15:06;;;;;;;8.60;2.35;;;;;;;;;;4275694;33;20222;-61
2022/06/22 01:17:36;;;;;;;4.05;2.50;;;;;;;;;;4275801;33;20116;-61
2022/06/22 01:20:24;;;;;;;4.87;2.42;;;;;;;;;;4275889;33;20104;-61
2022/06/22 01:23:19;;;;;;;7.87;2.12;;;;;;;;;;4275484;33;20127;-60
2022/06/22 01:25:47;;;;;;;3.37;1.73;;;;;;;;;;4239072;33;20152;-61
2022/06/22 01:28:14;;;;;;;4.07;1.80;;;;;;;;;;4261449;33;20123;-61
2022/06/22 01:30:43;;;;;;;2.80;1.77;;;;;;;;;;4248081;33;20112;-60
2022/06/22 01:33:20;;;;;;;4.28;1.98;;;;;;;;;;4248136;33;20547;-61
2022/06/22 01:35:51;;;;;;;5.12;1.77;;;;;;;;;;4248272;33;20099;-60
2022/06/22 01:38:25;;;;;;;2.67;1.80;;;;;;;;;;4261142;33;20151;-61
2022/06/22 01:41:06;;;;;;;2.45;2.10;;;;;;;;;;4261134;33;20551;-61
2022/06/22 01:43:38;;;;;;;6.47;1.95;;;;;;;;;;4261271;33;20180;-61
2022/06/22 01:46:24;;;;;;;2.10;1.62;;;;;;;;;;4248001;33;20512;-61
2022/06/22 01:49:01;;;;;;;5.55;2.35;;;;;;;;;;4261110;33;20131;-61
2022/06/22 01:51:33;;;;;;;5.40;1.95;;;;;;;;;;4254078;33;20097;-61
2022/06/22 01:54:04;;;;;;;6.78;1.90;;;;;;;;;;4262084;33;20132;-61
2022/06/22 01:56:41;;;;;;;8.85;2.15;;;;;;;;;;4275312;33;20119;-61
2022/06/22 01:59:28;;;;;;;2.00;1.73;;;;;;;;;;4262129;33;20108;-61
2022/06/22 02:02:13;;;;;;;6.82;2.33;;;;;;;;;;4275623;33;20128;-61
2022/06/22 02:04:54;;;;;;;12.17;1.87;;;;;;;;;;4275286;33;20116;-61
2022/06/22 02:10:23;;;;;;;4.53;2.22;;;;;;;;;;4274914;33;20119;-61
2022/06/22 02:13:02;;;;;;;3.08;2.00;;;;;;;;;;4275189;33;20531;-61
2022/06/22 02:15:31;;;;;;;4.62;2.28;;;;;;;;;;4262112;33;20151;-61
2022/06/22 02:17:57;;;;;;;7.25;1.87;;;;;;;;;;4275329;33;20104;-62
2022/06/22 02:20:30;;;;;;;5.05;2.40;;;;;;;;;;4275082;33;20531;-62
2022/06/22 02:23:12;;;;;;;3.60;1.95;;;;;;;;;;4261696;33;20186;-61
2022/06/22 02:25:43;;;;;;;12.88;2.80;;;;;;;;;;4261879;33;20096;-61
2022/06/22 02:28:09;;;;;;;9.52;2.80;;;;;;;;;;4274986;33;20139;-61
2022/06/22 02:30:35;;;;;;;14.30;3.12;;;;;;;;;;4275039;33;20194;-61
2022/06/22 02:33:01;;;;;;;12.65;2.92;;;;;;;;;;4274982;33;20202;-61
2022/06/22 02:35:28;;;;;;;14.93;2.72;;;;;;;;;;4274879;33;20191;-61
2022/06/22 02:37:56;;;;;;;4.18;2.42;;;;;;;;;;4274916;33;20120;-61
2022/06/22 02:40:27;;;;;;;6.30;3.53;;;;;;;;;;4273689;33;20103;-61
2022/06/22 02:45:38;;;;;;;12.10;5.37;;;;;;;;;;4273695;33;20092;-61
2022/06/22 02:48:26;;;;;;;9.02;4.25;;;;;;;;;;4274896;33;20527;-61
2022/06/22 02:51:06;;;;;;;7.05;2.78;;;;;;;;;;4261678;33;20107;-61
2022/06/22 02:53:35;;;;;;;2.75;2.00;;;;;;;;;;4261444;33;20142;-61
2022/06/22 02:56:02;;;;;;;4.00;2.35;;;;;;;;;;4274583;33;20495;-61
2022/06/22 02:58:31;;;;;;;4.07;1.95;;;;;;;;;;4274709;33;20467;-61
2022/06/22 03:01:01;;;;;;;9.13;3.22;;;;;;;;;;4261641;33;20111;-62
2022/06/22 03:03:27;;;;;;;5.25;2.20;;;;;;;;;;4274625;33;20120;-62
2022/06/22 03:05:55;;;;;;;4.57;2.30;;;;;;;;;;4274567;33;20190;-61
2022/06/22 03:08:22;;;;;;;4.35;2.35;;;;;;;;;;4261372;33;20160;-61
2022/06/22 03:10:58;;;;;;;6.25;2.50;;;;;;;;;;4274514;33;20108;-62
2022/06/22 03:13:28;;;;;;;2.70;1.92;;;;;;;;;;4261199;33;20107;-61
2022/06/22 03:15:55;;;;;;;2.22;1.98;;;;;;;;;;4261457;33;20092;-62
2022/06/22 03:18:26;;;;;;;4.80;2.20;;;;;;;;;;4274493;33;20215;-62
2022/06/22 03:20:57;;;;;;;3.10;2.10;;;;;;;;;;4250116;33;20107;-62
2022/06/22 03:23:33;;;;;;;2.45;1.85;;;;;;;;;;4276460;33;20115;-62
2022/06/22 03:26:07;;;;;;;3.83;1.80;;;;;;;;;;4263296;33;20680;-62
2022/06/22 03:28:36;;;;;;;2.25;1.85;;;;;;;;;;4263217;33;20543;-62
2022/06/22 03:31:11;;;;;;;9.00;2.20;;;;;;;;;;4250412;33;20105;-62
2022/06/22 03:33:45;;;;;;;4.43;1.73;;;;;;;;;;4260889;33;20280;-63
2022/06/22 03:36:16;;;;;;;5.10;1.90;;;;;;;;;;4263159;33;20116;-62
2022/06/22 03:38:47;;;;;;;3.58;2.00;;;;;;;;;;4254980;33;20508;-62
2022/06/22 03:41:20;;;;;;;6.78;1.90;;;;;;;;;;4237271;33;20116;-62
2022/06/22 03:43:52;;;;;;;4.00;1.75;;;;;;;;;;4248885;33;20195;-62
2022/06/22 03:46:29;;;;;;;2.47;2.12;;;;;;;;;;4255633;33;20539;-63
2022/06/22 03:49:13;;;;;;;2.47;1.70;;;;;;;;;;4239353;33;20532;-66
2022/06/22 03:51:52;;;;;;;4.53;2.08;;;;;;;;;;4272393;33;20104;-67
2022/06/22 03:54:25;;;;;;;2.78;1.80;;;;;;;;;;4267285;33;20187;-67
2022/06/22 03:56:54;;;;;;;2.90;2.10;;;;;;;;;;4260498;33;20096;-66
2022/06/22 03:59:21;;;;;;;5.07;2.20;;;;;;;;;;4260221;33;20136;-67
2022/06/22 04:01:47;;;;;;;6.65;2.33;;;;;;;;;;4261838;33;20440;-66
2022/06/22 04:04:13;;;;;;;3.10;2.30;;;;;;;;;;4260543;33;20198;-64
2022/06/22 04:06:44;;;;;;;3.53;2.40;;;;;;;;;;4261529;33;20108;-63
2022/06/22 04:09:19;;;;;;;2.97;2.05;;;;;;;;;;4252602;33;20112;-62
2022/06/22 04:12:08;;;;;;;4.57;2.70;;;;;;;;;;4274626;33;20116;-65
2022/06/22 04:14:42;;;;;;;5.97;4.57;;;;;;;;;;4276422;33;20447;-65
2022/06/22 04:17:12;;;;;;;5.57;2.83;;;;;;;;;;4263239;33;20111;-66
2022/06/22 04:19:46;;;;;;;3.37;2.28;;;;;;;;;;4276302;33;20209;-65
2022/06/22 04:22:16;;;;;;;1.42;1.23;;;;;;;;;;4262103;33;20215;-65
2022/06/22 04:24:52;;;;;;;3.33;1.42;;;;;;;;;;4272638;33;20245;-68
2022/06/22 04:27:32;;;;;;;4.50;2.15;;;;;;;;;;4249795;33;20211;-66
2022/06/22 04:30:10;;;;;;;0.90;0.90;;;;;;;;;;4275367;33;20115;-66
2022/06/22 04:32:39;;;;;;;1.48;1.37;;;;;;;;;;4268564;33;20536;-67
2022/06/22 04:35:15;;;;;;;2.17;1.37;;;;;;;;;;4264664;33;20124;-65
2022/06/22 04:37:44;;;;;;;3.90;3.03;;;;;;;;;;4248405;33;20111;-64
2022/06/22 04:40:24;;;;;;;4.35;2.72;;;;;;;;;;4264841;33;20116;-63
2022/06/22 04:42:58;;;;;;;2.83;2.37;;;;;;;;;;4271188;33;20111;-65
2022/06/22 04:45:36;;;;;;;5.22;2.42;;;;;;;;;;4276075;33;20205;-68
2022/06/22 04:48:07;;;;;;;1.75;1.42;;;;;;;;;;4275916;33;20103;-67
2022/06/22 04:50:35;;;;;;;4.15;2.42;;;;;;;;;;4276234;33;20088;-68
2022/06/22 04:53:02;;;;;;;6.87;3.70;;;;;;;;;;4275692;33;20126;-66
2022/06/22 04:55:29;;;;;;;12.20;3.70;;;;;;;;;;4275867;33;20115;-65
2022/06/22 04:58:00;;;;;;;11.68;3.35;;;;;;;;;;4275875;33;20103;-66
2022/06/22 05:00:29;;;;;;;4.65;3.15;;;;;;;;;;4262770;33;20104;-67
2022/06/22 05:03:01;;;;;;;7.97;3.10;;;;;;;;;;4275597;33;20170;-66
2022/06/22 05:05:30;;;;;;;10.10;3.28;;;;;;;;;;4260161;33;20116;-65
2022/06/22 05:08:01;;;;;;;11.23;3.30;;;;;;;;;;4274511;33;20096;-66
2022/06/22 05:10:47;;;;;;;6.30;2.90;;;;;;;;;;4260616;33;20596;-64
2022/06/22 05:13:20;;;;;;;7.50;2.70;;;;;;;;;;4269655;33;20120;-65
2022/06/22 05:15:49;;;;;;;2.97;2.25;;;;;;;;;;4259797;33;20515;-65
2022/06/22 05:18:21;;;;;;;6.45;2.30;;;;;;;;;;4274557;33;20107;-66
2022/06/22 05:21:20;;;;;;;3.45;2.70;;;;;;;;;;4271669;33;20468;-65
2022/06/22 05:23:52;;;;;;;6.07;2.62;;;;;;;;;;4266882;33;20210;-67
2022/06/22 05:26:21;;;;;;;5.70;3.10;;;;;;;;;;4270017;33;20207;-70
2022/06/22 05:28:52;;;;;;;6.70;2.67;;;;;;;;;;4275551;33;20100;-66
2022/06/22 05:31:22;;;;;;;2.65;2.00;;;;;;;;;;4262500;33;20123;-67
2022/06/22 05:33:51;;;;;;;5.53;2.60;;;;;;;;;;4260837;33;20119;-69
2022/06/22 05:36:20;;;;;;;3.00;2.00;;;;;;;;;;4268765;33;20203;-65
2022/06/22 05:38:49;;;;;;;5.90;2.62;;;;;;;;;;4266679;33;20124;-65
2022/06/22 05:41:19;;;;;;;4.43;1.95;;;;;;;;;;4249994;33;20544;-67
2022/06/22 05:43:46;;;;;;;2.37;2.17;;;;;;;;;;4261054;33;20206;-64
2022/06/22 05:46:12;;;;;;;7.90;2.45;;;;;;;;;;4259600;33;20112;-65
2022/06/22 05:48:42;;;;;;;6.03;2.80;;;;;;;;;;4261116;33;20111;-66
2022/06/22 05:51:29;;;;;;;9.35;2.78;;;;;;;;;;4261166;33;20095;-66
2022/06/22 05:54:00;;;;;;;3.17;2.42;;;;;;;;;;4275732;33;20106;-66
2022/06/22 05:56:38;;;;;;;15.25;3.58;;;;;;;;;;4262333;33;20084;-66
2022/06/22 05:59:42;;;;;;;7.53;3.05;;;;;;;;;;4275444;33;20104;-65
2022/06/22 06:02:35;;;;;;;4.62;2.17;;;;;;;;;;4275150;33;20138;-68
2022/06/22 06:05:05;;;;;;;2.62;2.08;;;;;;;;;;4273198;33;20096;-68
2022/06/22 06:07:52;;;;;;;4.78;3.17;;;;;;;;;;4268911;33;20142;-67
2022/06/22 06:10:21;;;;;;;5.57;2.72;;;;;;;;;;4275345;33;20217;-67
2022/06/22 06:12:55;;;;;;;8.27;3.20;;;;;;;;;;4269804;33;20128;-66
2022/06/22 06:15:21;;;;;;;7.53;3.15;;;;;;;;;;4268937;33;20108;-67
2022/06/22 06:17:50;;;;;;;8.40;3.58;;;;;;;;;;4272964;33;20127;-68
2022/06/22 06:20:40;;;;;;;9.45;5.25;;;;;;;;;;4272990;33;20087;-67
2022/06/22 06:23:29;;;;;;;9.27;4.82;;;;;;;;;;4271162;33;20099;-67
2022/06/22 06:28:52;;;;;;;7.65;4.07;;;;;;;;;;4261384;33;20203;-67
2022/06/22 06:31:36;;;;;;;6.37;3.17;;;;;;;;;;4268209;33;20108;-66
2022/06/22 06:34:19;;;;;;;9.65;3.97;;;;;;;;;;4261933;33;20116;-67
2022/06/22 06:37:15;;;;;;;5.70;2.55;;;;;;;;;;4265770;33;20122;-68
2022/06/22 06:39:46;;;;;;;3.35;2.87;;;;;;;;;;4259516;33;20125;-66
2022/06/22 06:42:44;;;;;;;4.75;2.42;;;;;;;;;;4273526;33;20168;-68
2022/06/22 06:45:15;;;;;;;5.25;2.60;;;;;;;;;;4248969;33;20219;-68
2022/06/22 06:47:48;;;;;;;5.05;3.10;;;;;;;;;;4247592;33;20119;-68
2022/06/22 06:50:19;;;;;;;7.57;3.75;;;;;;;;;;4260586;33;20119;-68
2022/06/22 06:52:53;;;;;;;2.85;2.28;;;;;;;;;;4247308;33;20167;-68
2022/06/22 06:55:31;;;;;;;3.65;2.30;;;;;;;;;;4234893;33;20199;-68
2022/06/22 06:58:12;;;;;;;4.97;2.67;;;;;;;;;;4247473;33;20437;-68
2022/06/22 07:00:38;;;;;;;2.92;2.20;;;;;;;;;;4247471;33;20226;-67
2022/06/22 07:03:07;;;;;;;4.53;2.35;;;;;;;;;;4240517;33;20135;-68
2022/06/22 07:05:34;;;;;;;6.40;2.42;;;;;;;;;;4274685;33;20120;-69
2022/06/22 07:08:09;;;;;;;49.83;23.23;;;;;;;;;;4261227;33;20529;-67
2022/06/22 07:10:46;;;;;;;;;;;;;;;;;;4261743;33;20108;-66
2022/06/22 07:13:27;;;;;;;2.90;2.40;;;;;;;;;;4274513;33;20567;-66
2022/06/22 07:15:59;;;;;;;4.82;2.25;;;;;;;;;;4261607;33;20108;-67
2022/06/22 07:18:40;;;;;;;3.83;2.70;;;;;;;;;;4272953;33;20190;-65
2022/06/22 07:21:22;;;;;;;5.87;2.60;;;;;;;;;;4274514;33;20100;-65
2022/06/22 07:23:56;;;;;;;6.05;2.50;;;;;;;;;;4274710;33;20104;-66
2022/06/22 07:26:27;;;;;;;3.40;1.92;;;;;;;;;;4273144;33;20179;-66
2022/06/22 07:29:22;;;;;;;3.53;2.40;;;;;;;;;;4260816;33;20093;-66
2022/06/22 07:32:08;;;;;;;3.10;2.50;;;;;;;;;;4261388;33;20193;-64
2022/06/22 07:34:39;;;;;;;4.62;2.30;;;;;;;;;;4273876;33;20096;-66
2022/06/22 07:37:35;;;;;;;5.30;2.37;;;;;;;;;;4274385;33;20131;-67
2022/06/22 07:40:14;;;;;;;7.20;2.40;;;;;;;;;;4249874;33;20119;-66
2022/06/22 07:42:40;;;;;;;4.90;2.17;;;;;;;;;;4261097;33;20221;-66
2022/06/22 07:45:13;;;;;;;2.72;2.30;;;;;;;;;;4274323;33;20450;-65
2022/06/22 07:47:43;;;;;;;4.57;2.80;;;;;;;;;;4274007;33;20126;-65
2022/06/22 07:50:14;;;;;;;4.07;2.47;;;;;;;;;;4261098;33;20134;-65
2022/06/22 07:52:45;;;;;;;2.50;2.10;;;;;;;;;;4274197;33;20115;-66
2022/06/22 07:55:31;;;;;;;5.12;2.47;;;;;;;;;;4260805;33;20116;-64
2022/06/22 07:58:18;;;;;;;3.20;2.20;;;;;;;;;;4274125;33;20112;-65
2022/06/22 08:00:45;;;;;;;5.60;2.40;;;;;;;;;;4249076;33;20116;-66
2022/06/22 08:03:34;;;;;;;4.03;2.22;;;;;;;;;;4273827;33;20107;-66
2022/06/22 08:06:05;;;;;;;4.68;2.40;;;;;;;;;;4273843;33;20217;-65
2022/06/22 08:08:36;;;;;;;4.78;2.30;;;;;;;;;;4275456;33;20122;-65
2022/06/22 08:11:07;;;;;;;9.30;2.42;;;;;;;;;;4274920;33;20107;-65
2022/06/22 08:13:44;;;;;;;5.25;2.40;;;;;;;;;;4276198;33;20146;-65
2022/06/22 08:16:14;;;;;;;3.62;2.85;;;;;;;;;;4262938;33;20115;-66
2022/06/22 08:18:41;;;;;;;6.15;2.53;;;;;;;;;;4276085;33;20156;-66
2022/06/22 08:21:11;;;;;;;3.78;2.42;;;;;;;;;;4274700;33;20206;-67
2022/06/22 08:23:37;;;;;;;5.28;2.53;;;;;;;;;;4274611;33;20112;-65
2022/06/22 08:26:05;;;;;;;3.55;2.30;;;;;;;;;;4276117;33;20120;-64
2022/06/22 08:28:37;;;;;;;4.37;2.95;;;;;;;;;;4276373;33;20100;-65
2022/06/22 08:31:04;;;;;;;8.25;3.05;;;;;;;;;;4262779;33;20111;-67
2022/06/22 08:33:41;;;;;;;6.43;2.85;;;;;;;;;;4262651;33;20100;-65
2022/06/22 08:36:46;;;;;;;5.72;2.80;;;;;;;;;;4262974;33;20130;-66
2022/06/22 08:39:53;;;;;;;6.20;2.60;;;;;;;;;;4275653;33;20673;-67
2022/06/22 08:42:31;;;;;;;4.30;2.62;;;;;;;;;;4217059;34;20106;-65
2022/06/22 08:45:15;;;;;;;2.62;2.17;;;;;;;;;;4271079;33;20124;-65
2022/06/22 08:47:53;;;;;;;8.63;3.00;;;;;;;;;;4276122;33;20210;-64
2022/06/22 08:50:37;;;;;;;10.90;3.25;;;;;;;;;;4275938;33;20115;-64
2022/06/22 08:53:12;;;;;;;3.75;2.55;;;;;;;;;;4276019;33;20127;-68
2022/06/22 08:56:02;;;;;;;4.97;2.60;;;;;;;;;;4275844;33;20112;-65
2022/06/22 08:58:50;;;;;;;6.07;2.37;;;;;;;;;;4275745;33;20115;-64
2022/06/22 09:01:29;;;;;;;7.22;2.42;;;;;;;;;;4261648;33;20551;-64
2022/06/22 09:04:13;;;;;;;6.80;2.75;;;;;;;;;;4262627;33;20123;-66
2022/06/22 09:07:00;;;;;;;10.65;2.47;;;;;;;;;;4262468;33;20119;-65
2022/06/22 09:09:50;;;;;;;6.12;3.25;;;;;;;;;;4275379;33;20120;-66
2022/06/22 09:12:37;;;;;;;4.35;2.60;;;;;;;;;;4259209;33;20108;-67
2022/06/22 09:15:28;;;;;;;4.43;3.00;;;;;;;;;;4272057;33;20134;-67
2022/06/22 09:18:00;;;;;;;4.32;2.45;;;;;;;;;;4275334;33;20107;-68
2022/06/22 09:20:45;;;;;;;6.32;2.92;;;;;;;;;;4275272;33;20103;-67
2022/06/22 09:23:55;;;;;;;5.87;3.35;;;;;;;;;;4275562;33;20096;-67
2022/06/22 09:27:04;;;;;;;2.08;1.83;;;;;;;;;;4264212;33;20158;-67
2022/06/22 09:29:41;;;;;;;10.52;2.35;;;;;;;;;;4249016;33;20096;-67
2022/06/22 09:32:51;;;;;;;3.03;2.50;;;;;;;;;;4274505;33;20520;-67
2022/06/22 09:35:42;;;;;;;10.38;2.60;;;;;;;;;;4264298;33;20106;-67
2022/06/22 09:38:39;;;;;;;2.97;2.67;;;;;;;;;;4275571;33;20108;-67
2022/06/22 09:41:20;;;;;;;4.62;3.22;;;;;;;;;;4275843;33;20107;-67
2022/06/22 09:44:06;;;;;;;6.40;2.25;;;;;;;;;;4275544;33;20104;-67
2022/06/22 09:46:58;;;;;;;8.93;4.00;;;;;;;;;;4275687;33;20104;-67
2022/06/22 09:49:38;;;;;;;3.65;2.67;;;;;;;;;;4275770;33;20115;-67
2022/06/22 09:52:15;;;;;;;4.18;3.08;;;;;;;;;;4275406;33;20108;-68
2022/06/22 09:58:04;;;;;;;6.20;2.65;;;;;;;;;;4275310;33;20535;-67
2022/06/22 10:00:55;;;;;;;1.70;1.60;;;;;;;;;;4275662;33;20229;-67
2022/06/22 10:03:25;;;;;;;4.65;2.83;;;;;;;;;;4269483;33;20120;-67
2022/06/22 10:06:20;;;;;;;6.37;2.95;;;;;;;;;;4262080;33;20087;-67
2022/06/22 10:09:18;;;;;;;3.40;2.70;;;;;;;;;;4258851;33;20139;-67
2022/06/22 10:11:56;;;;;;;3.33;2.78;;;;;;;;;;4247234;33;20151;-66
2022/06/22 10:14:46;;;;;;;3.33;2.67;;;;;;;;;;4235860;33;20660;-67
2022/06/22 10:17:27;;;;;;;9.63;3.05;;;;;;;;;;4247771;33;20099;-66
2022/06/22 10:20:14;;;;;;;5.65;3.42;;;;;;;;;;4260892;33;20113;-66
2022/06/22 10:23:05;;;;;;;6.90;3.47;;;;;;;;;;4260568;33;20079;-66
2022/06/22 10:26:01;;;;;;;4.70;2.70;;;;;;;;;;4260875;33;20112;-66
2022/06/22 10:29:10;;;;;;;7.15;3.20;;;;;;;;;;4260609;33;20206;-67
2022/06/22 10:32:15;;;;;;;3.17;2.72;;;;;;;;;;4235740;33;20199;-66
2022/06/22 10:34:50;;;;;;;6.55;3.33;;;;;;;;;;4235053;33;20516;-67
2022/06/22 10:37:38;;;;;;;6.12;3.42;;;;;;;;;;4260938;33;20123;-64
2022/06/22 10:46:12;;;;;;;4.25;3.05;;;;;;;;;;4260656;33;20131;-64
2022/06/22 10:48:56;;;;;;;7.07;3.08;;;;;;;;;;4260426;33;20120;-65
2022/06/22 10:52:04;;;;;;;5.03;2.90;;;;;;;;;;4260622;33;20218;-63
2022/06/22 10:54:49;;;;;;;5.15;3.17;;;;;;;;;;4238965;33;20235;-64
2022/06/22 10:57:59;;;;;;;4.75;2.78;;;;;;;;;;4247393;33;20554;-64
2022/06/22 11:00:43;;;;;;;3.87;2.83;;;;;;;;;;4247630;33;20097;-64
2022/06/22 11:03:34;;;;;;;5.10;2.72;;;;;;;;;;4260313;33;20111;-67
2022/06/22 11:06:23;;;;;;;5.80;3.28;;;;;;;;;;4260743;33;20104;-65
2022/06/22 11:08:58;;;;;;;3.67;2.72;;;;;;;;;;4247076;33;20448;-65
2022/06/22 11:11:52;;;;;;;3.17;2.80;;;;;;;;;;4258994;33;20210;-64
2022/06/22 11:14:18;;;;;;;4.10;2.83;;;;;;;;;;4270349;33;20522;-64
2022/06/22 11:17:09;;;;;;;4.65;3.45;;;;;;;;;;4274518;33;20123;-64
2022/06/22 11:19:41;;;;;;;3.78;2.62;;;;;;;;;;4274617;33;20236;-64
2022/06/22 11:22:16;;;;;;;6.75;2.83;;;;;;;;;;4274731;33;20116;-65
2022/06/22 11:25:02;;;;;;;5.78;3.05;;;;;;;;;;4260988;33;20116;-64
2022/06/22 11:33:26;;;;;;;3.90;2.97;;;;;;;;;;4274062;33;20611;-64
2022/06/22 11:36:01;;;;;;;5.80;3.12;;;;;;;;;;4274362;33;20120;-65
2022/06/22 11:38:46;;;;;;;3.83;3.03;;;;;;;;;;4261192;33;20115;-64
2022/06/22 11:41:56;;;;;;;6.20;3.37;;;;;;;;;;4274439;33;20550;-65
2022/06/22 11:44:34;;;;;;;5.60;3.22;;;;;;;;;;4217538;34;20572;-64
2022/06/22 11:47:32;;;;;;;5.53;3.00;;;;;;;;;;4273068;33;20419;-65
2022/06/22 11:50:15;;;;;;;3.70;2.85;;;;;;;;;;4239733;33;20132;-65
2022/06/22 11:52:49;;;;;;;8.88;3.35;;;;;;;;;;4263145;33;20100;-64
2022/06/22 11:55:21;;;;;;;4.93;2.87;;;;;;;;;;4276718;33;20115;-64
2022/06/22 11:58:24;;;;;;;4.22;3.12;;;;;;;;;;4276198;33;20115;-64
2022/06/22 12:00:59;;;;;;;5.50;3.28;;;;;;;;;;4276316;33;20610;-64
2022/06/22 12:03:57;;;;;;;7.47;3.62;;;;;;;;;;4276218;33;20096;-64
2022/06/22 12:06:48;;;;;;;3.30;2.72;;;;;;;;;;4276304;33;20116;-67
2022/06/22 12:09:23;;;;;;;7.30;3.80;;;;;;;;;;4262672;33;20515;-64
2022/06/22 12:12:23;;;;;;;5.20;3.20;;;;;;;;;;4263031;33;20101;-65
2022/06/22 12:15:14;;;;;;;6.53;4.03;;;;;;;;;;4275547;33;20100;-64
2022/06/22 12:17:56;;;;;;;6.95;3.78;;;;;;;;;;4260400;33;20590;-64
2022/06/22 12:20:37;;;;;;;13.48;4.32;;;;;;;;;;4261976;33;20264;-65
2022/06/22 12:23:19;;;;;;;6.30;3.62;;;;;;;;;;4265228;33;20111;-64
2022/06/22 12:26:08;;;;;;;8.57;4.35;;;;;;;;;;4248669;33;20461;-64
2022/06/22 12:28:41;;;;;;;5.90;3.25;;;;;;;;;;4267245;33;20530;-63
2022/06/22 12:31:13;;;;;;;6.60;3.40;;;;;;;;;;4268963;33;20131;-65
2022/06/22 12:34:10;;;;;;;5.10;3.30;;;;;;;;;;4273389;33;20092;-65
2022/06/22 12:36:44;;;;;;;9.85;3.72;;;;;;;;;;4264646;33;20468;-65
2022/06/22 12:39:31;;;;;;;7.20;3.42;;;;;;;;;;4259542;33;20190;-65
2022/06/22 12:42:38;;;;;;;7.22;3.20;;;;;;;;;;4261657;33;20203;-66
2022/06/22 12:45:37;;;;;;;8.38;3.87;;;;;;;;;;4260332;33;20128;-67
2022/06/22 12:48:15;;;;;;;11.93;3.72;;;;;;;;;;4248433;33;20100;-67
2022/06/22 12:50:46;;;;;;;10.52;4.20;;;;;;;;;;4261903;33;20089;-67
2022/06/22 12:53:41;;;;;;;9.45;4.47;;;;;;;;;;4259260;33;20187;-67
2022/06/22 12:56:30;;;;;;;5.45;3.60;;;;;;;;;;4260442;33;20124;-66
2022/06/22 12:59:21;;;;;;;7.70;3.40;;;;;;;;;;4254033;33;20112;-67
2022/06/22 13:01:47;;;;;;;8.15;3.33;;;;;;;;;;4261778;33;20544;-65
2022/06/22 13:04:21;;;;;;;4.90;3.20;;;;;;;;;;4248363;33;20112;-66
2022/06/22 13:06:53;;;;;;;4.78;3.55;;;;;;;;;;4248475;33;20195;-67
2022/06/22 13:09:20;;;;;;;12.93;4.30;;;;;;;;;;4236659;33;20119;-67
2022/06/22 13:11:49;;;;;;;6.90;3.87;;;;;;;;;;4251711;33;20170;-67
2022/06/22 13:14:39;;;;;;;8.70;4.25;;;;;;;;;;4250742;33;20183;-68
2022/06/22 13:17:11;;;;;;;7.65;3.83;;;;;;;;;;4262520;33;20095;-67
2022/06/22 13:19:55;;;;;;;4.70;3.40;;;;;;;;;;4275743;33;20523;-67
2022/06/22 13:22:25;;;;;;;10.95;3.62;;;;;;;;;;4275698;33;20117;-67
2022/06/22 13:25:43;;;;;;;7.85;3.75;;;;;;;;;;4262153;33;20119;-66
2022/06/22 13:28:29;;;;;;;8.20;3.40;;;;;;;;;;4263004;33;20123;-65
2022/06/22 13:30:58;;;;;;;7.85;3.67;;;;;;;;;;4238948;33;20139;-66
2022/06/22 13:33:34;;;;;;;4.78;3.62;;;;;;;;;;4262148;33;20100;-66
2022/06/22 13:36:08;;;;;;;8.63;3.50;;;;;;;;;;4250722;33;20091;-67
2022/06/22 13:38:49;;;;;;;4.82;2.80;;;;;;;;;;4262243;33;20475;-66
2022/06/22 13:41:40;;;;;;;8.18;3.33;;;;;;;;;;4261554;33;20123;-65
2022/06/22 13:44:12;;;;;;;5.40;3.47;;;;;;;;;;4247968;33;20131;-66
2022/06/22 13:47:27;;;;;;;8.00;3.65;;;;;;;;;;4248296;33;20114;-65
2022/06/22 13:50:19;;;;;;;11.38;4.47;;;;;;;;;;4235920;33;20131;-66
2022/06/22 13:52:51;;;;;;;11.02;4.28;;;;;;;;;;4260967;33;20127;-66
2022/06/22 13:55:32;;;;;;;3.05;2.47;;;;;;;;;;4261106;33;20586;-65
2022/06/22 13:58:12;;;;;;;10.00;3.87;;;;;;;;;;4261135;33;20120;-66
2022/06/22 14:00:48;;;;;;;6.35;3.80;;;;;;;;;;4236234;33;20191;-66
2022/06/22 14:03:29;;;;;;;7.12;3.78;;;;;;;;;;4260865;33;20103;-66
2022/06/22 14:06:02;;;;;;;14.07;3.35;;;;;;;;;;4248115;33;20444;-65
2022/06/22 14:08:42;;;;;;;12.27;3.42;;;;;;;;;;4247731;33;20120;-66
2022/06/22 14:11:30;;;;;;;7.03;5.35;;;;;;;;;;4261089;33;20124;-65
2022/06/22 14:14:09;;;;;;;6.40;3.95;;;;;;;;;;4267290;33;20130;-64
2022/06/22 14:16:55;;;;;;;9.45;3.50;;;;;;;;;;4275236;33;20186;-66
2022/06/22 14:19:44;;;;;;;10.07;3.50;;;;;;;;;;4261951;33;20119;-65
2022/06/22 14:22:22;;;;;;;8.30;4.22;;;;;;;;;;4250314;33;20108;-66
2022/06/22 14:24:49;;;;;;;5.15;3.47;;;;;;;;;;4275076;33;20100;-66
2022/06/22 14:27:37;;;;;;;8.02;3.62;;;;;;;;;;4261687;33;20515;-64
2022/06/22 14:30:23;;;;;;;10.70;3.33;;;;;;;;;;4262011;33;20191;-64
2022/06/22 14:33:20;;;;;;;5.62;3.25;;;;;;;;;;4261733;33;20205;-65
2022/06/22 14:35:53;;;;;;;7.60;3.70;;;;;;;;;;4261790;33;20089;-66
2022/06/22 14:38:46;;;;;;;4.03;3.20;;;;;;;;;;4274985;33;20426;-64
2022/06/22 14:41:21;;;;;;;11.23;3.62;;;;;;;;;;4273970;33;20108;-63
2022/06/22 14:44:23;;;;;;;5.32;3.30;;;;;;;;;;4261171;33;20538;-65
2022/06/22 14:47:10;;;;;;;7.95;3.20;;;;;;;;;;4274882;33;20495;-66
2022/06/22 14:49:55;;;;;;;7.95;3.12;;;;;;;;;;4250078;33;20107;-66
2022/06/22 14:52:46;;;;;;;5.97;3.30;;;;;;;;;;4275116;33;20202;-65
2022/06/22 14:55:38;;;;;;;3.62;3.00;;;;;;;;;;4266989;33;20142;-65
2022/06/22 14:58:34;;;;;;;10.65;3.60;;;;;;;;;;4274707;33;20472;-65
2022/06/22 15:01:15;;;;;;;3.50;2.95;;;;;;;;;;4274551;33;20088;-64
2022/06/22 15:04:12;;;;;;;7.95;4.12;;;;;;;;;;4274454;33;20119;-65
2022/06/22 15:07:26;;;;;;;4.10;3.28;;;;;;;;;;4257180;33;20182;-65
2022/06/22 15:10:19;;;;;;;7.62;3.15;;;;;;;;;;4204141;34;20249;-65
2022/06/22 15:13:15;;;;;;;4.28;3.20;;;;;;;;;;4214456;34;20584;-65
2022/06/22 15:15:43;;;;;;;11.48;4.28;;;;;;;;;;4269929;33;20464;-64
2022/06/22 15:18:32;;;;;;;7.93;3.85;;;;;;;;;;4274027;33;20126;-65
2022/06/22 15:20:59;;;;;;;7.35;3.87;;;;;;;;;;4274809;33;20108;-64
2022/06/22 15:23:57;;;;;;;5.28;3.70;;;;;;;;;;4261305;33;20096;-65
2022/06/22 15:26:30;;;;;;;4.75;3.50;;;;;;;;;;4247218;33;20112;-65
2022/06/22 15:29:11;;;;;;;6.87;3.08;;;;;;;;;;4260990;33;20101;-64
2022/06/22 15:31:43;;;;;;;10.90;3.83;;;;;;;;;;4261102;33;20120;-64
2022/06/22 15:34:27;;;;;;;7.12;3.50;;;;;;;;;;4274345;33;20104;-63
2022/06/22 15:37:17;;;;;;;14.63;4.12;;;;;;;;;;4274441;33;20124;-63
2022/06/22 15:40:11;;;;;;;6.80;3.42;;;;;;;;;;4274206;33;20120;-65
2022/06/22 15:42:48;;;;;;;4.93;3.92;;;;;;;;;;4267636;33;20147;-66
2022/06/22 15:45:17;;;;;;;10.27;3.78;;;;;;;;;;4274263;33;20116;-66
2022/06/22 15:47:50;;;;;;;10.90;3.53;;;;;;;;;;4274320;33;20214;-67
2022/06/22 15:50:46;;;;;;;11.12;3.45;;;;;;;;;;4261187;33;20547;-63
2022/06/22 15:53:26;;;;;;;12.40;4.00;;;;;;;;;;4243252;33;20119;-63
2022/06/22 15:56:10;;;;;;;6.30;3.40;;;;;;;;;;4274303;33;20503;-64
2022/06/22 15:58:57;;;;;;;9.03;4.03;;;;;;;;;;4274064;33;20546;-66
2022/06/22 16:01:33;;;;;;;8.35;3.78;;;;;;;;;;4272087;33;20740;-66
2022/06/22 16:04:11;;;;;;;9.55;4.10;;;;;;;;;;4252535;33;20108;-66
2022/06/22 16:06:59;;;;;;;10.43;4.22;;;;;;;;;;4258633;33;20111;-66
2022/06/22 16:09:37;;;;;;;9.13;4.55;;;;;;;;;;4266981;33;20579;-65
2022/06/22 16:15:10;;;;;;;12.40;5.25;;;;;;;;;;4265611;33;20539;-64
2022/06/22 16:18:02;;;;;;;11.15;4.22;;;;;;;;;;4262876;33;20120;-63
2022/06/22 16:20:45;;;;;;;9.48;4.22;;;;;;;;;;4260649;33;20205;-64
2022/06/22 16:23:32;;;;;;;8.98;3.97;;;;;;;;;;4250030;33;20097;-66
2022/06/22 16:26:03;;;;;;;14.57;4.50;;;;;;;;;;4274157;33;20112;-67
2022/06/22 16:28:50;;;;;;;6.30;2.60;;;;;;;;;;4259985;33;20119;-63
2022/06/22 16:31:42;;;;;;;5.68;2.87;;;;;;;;;;4256813;33;20120;-64
2022/06/22 16:34:18;;;;;;;3.33;2.33;;;;;;;;;;4275927;33;20207;-65
2022/06/22 16:37:33;;;;;;;4.57;3.50;;;;;;;;;;4256944;33;20108;-65
2022/06/22 16:39:59;;;;;;;2.42;1.95;;;;;;;;;;4257222;33;20115;-64
2022/06/22 16:42:34;;;;;;;1.55;1.45;;;;;;;;;;4268366;33;20288;-67
2022/06/22 16:45:05;;;;;;;3.95;2.55;;;;;;;;;;4277110;33;20112;-65
2022/06/22 16:47:54;;;;;;;3.45;2.40;;;;;;;;;;4267666;33;20118;-66
2022/06/22 16:50:45;;;;;;;3.33;2.35;;;;;;;;;;4274860;33;20206;-63